createdAt,value
2019-05-02T00:00:05.971Z,39.92
2019-05-02T00:02:40.509Z,38.28
2019-05-02T00:05:13.353Z,37.10
2019-05-02T00:07:46.760Z,36.48
2019-05-02T00:10:24.779Z,36.03
2019-05-02T00:12:55.885Z,38.60
2019-05-02T00:15:33.029Z,34.70
2019-05-02T00:18:03.498Z,33.35
2019-05-02T00:20:36.226Z,41.25
2019-05-02T00:23:09.274Z,31.23
2019-05-02T00:25:42.167Z,32.93
2019-05-02T00:28:14.745Z,38.42
2019-05-02T00:30:47.478Z,36.63
2019-05-02T00:33:20.113Z,32.70
2019-05-02T00:35:52.964Z,32.33
2019-05-02T00:38:26.058Z,33.23
2019-05-02T00:41:02.334Z,36.58
2019-05-02T00:43:34.409Z,34.87
2019-05-02T00:46:07.681Z,34.78
2019-05-02T00:48:41.795Z,38.80
2019-05-02T00:51:15.307Z,41.50
2019-05-02T00:53:48.291Z,36.68
2019-05-02T00:56:22.299Z,35.45
2019-05-02T00:58:54.803Z,35.25
2019-05-02T01:01:29.408Z,37.40
2019-05-02T01:04:03.701Z,39.40
2019-05-02T01:06:36.755Z,33.10
2019-05-02T01:09:11.531Z,33.73
2019-05-02T01:11:45.271Z,37.98
2019-05-02T01:14:18.026Z,39.53
2019-05-02T01:16:54.348Z,35.52
2019-05-02T01:19:26.563Z,38.13
2019-05-02T01:22:00.774Z,37.10
2019-05-02T01:24:41.597Z,38.28
2019-05-02T01:27:12.348Z,36.88
2019-05-02T01:29:46.677Z,36.60
2019-05-02T01:32:25.202Z,42.25
2019-05-02T01:34:57.992Z,41.00
2019-05-02T01:40:04.528Z,43.13
2019-05-02T01:42:40.064Z,38.92
2019-05-02T01:45:12.591Z,43.73
2019-05-02T01:47:46.383Z,38.25
2019-05-02T01:50:19.207Z,37.08
2019-05-02T01:52:53.723Z,41.73
2019-05-02T01:55:27.341Z,38.00
2019-05-02T01:58:01.056Z,35.75
2019-05-02T02:00:34.352Z,37.42
2019-05-02T02:03:09.056Z,39.98
2019-05-02T02:05:43.050Z,40.30
2019-05-02T02:08:16.876Z,41.68
2019-05-02T02:10:55.652Z,34.27
2019-05-02T02:13:26.137Z,40.67
2019-05-02T02:16:00.179Z,38.83
2019-05-02T02:18:37.929Z,40.48
2019-05-02T02:21:12.984Z,36.03
2019-05-02T02:23:49.594Z,40.43
2019-05-02T02:26:24.766Z,42.15
2019-05-02T02:31:30.387Z,34.90
2019-05-02T02:34:03.436Z,49.85
2019-05-02T02:36:37.048Z,39.48
2019-05-02T02:39:14.006Z,37.98
2019-05-02T02:41:52.032Z,41.23
2019-05-02T02:44:23.554Z,41.30
2019-05-02T02:46:57.886Z,43.52
2019-05-02T02:49:31.382Z,39.42
2019-05-02T02:52:06.937Z,41.13
2019-05-02T02:54:43.107Z,41.30
2019-05-02T02:57:26.032Z,41.37
2019-05-02T02:59:51.547Z,39.88
2019-05-02T03:02:24.894Z,42.65
2019-05-02T03:04:58.545Z,46.98
2019-05-02T03:07:32.002Z,41.25
2019-05-02T03:10:08.521Z,46.35
2019-05-02T03:12:43.304Z,45.10
2019-05-02T03:15:21.242Z,45.00
2019-05-02T03:17:53.191Z,51.55
2019-05-02T03:20:27.360Z,45.20
2019-05-02T03:23:01.400Z,43.80
2019-05-02T03:25:49.907Z,50.67
2019-05-02T03:28:17.353Z,49.23
2019-05-02T03:30:46.954Z,42.60
2019-05-02T03:33:20.711Z,41.90
2019-05-02T03:35:54.712Z,44.13
2019-05-02T03:38:32.757Z,43.63
2019-05-02T03:41:04.486Z,43.83
2019-05-02T03:43:37.807Z,43.58
2019-05-02T03:46:13.431Z,46.95
2019-05-02T03:48:46.638Z,51.20
2019-05-02T03:51:24.767Z,44.58
2019-05-02T03:56:28.018Z,50.67
2019-05-02T03:59:01.241Z,48.78
2019-05-02T04:01:41.194Z,43.83
2019-05-02T04:04:14.101Z,40.48
2019-05-02T04:06:45.735Z,53.10
2019-05-02T04:09:20.914Z,46.63
2019-05-02T04:11:54.491Z,47.40
2019-05-02T04:14:37.760Z,52.10
2019-05-02T04:17:04.168Z,53.63
2019-05-02T04:19:37.876Z,43.53
2019-05-02T04:22:11.995Z,44.77
2019-05-02T04:27:19.559Z,53.55
2019-05-02T04:29:54.047Z,54.75
2019-05-02T04:32:27.415Z,54.85
2019-05-02T04:35:00.845Z,51.13
2019-05-02T04:37:40.498Z,56.60
2019-05-02T04:40:12.320Z,46.53
2019-05-02T04:42:53.442Z,49.08
2019-05-02T04:47:58.419Z,53.70
2019-05-02T04:50:30.899Z,39.50
2019-05-02T04:53:04.287Z,51.33
2019-05-02T04:55:39.159Z,54.00
2019-05-02T04:58:26.642Z,45.08
2019-05-02T05:00:56.765Z,51.25
2019-05-02T05:03:25.726Z,45.98
2019-05-02T05:06:07.270Z,44.33
2019-05-02T05:08:38.912Z,45.10
2019-05-02T05:11:13.900Z,48.50
2019-05-02T05:13:52.352Z,50.88
2019-05-02T05:16:24.004Z,51.92
2019-05-02T05:19:07.756Z,46.37
2019-05-02T05:21:40.931Z,51.68
2019-05-02T05:24:13.939Z,49.33
2019-05-02T05:26:48.889Z,49.18
2019-05-02T05:32:05.293Z,59.70
2019-05-02T05:37:09.432Z,66.30
2019-05-02T05:39:48.084Z,57.15
2019-05-02T05:42:23.424Z,60.38
2019-05-02T05:44:53.697Z,56.33
2019-05-02T05:47:27.417Z,64.07
2019-05-02T05:50:01.383Z,55.00
2019-05-02T05:52:38.782Z,55.48
2019-05-02T05:55:12.894Z,59.33
2019-05-02T05:57:49.726Z,55.03
2019-05-02T06:00:27.807Z,54.40
2019-05-02T06:03:11.578Z,52.60
2019-05-02T06:05:44.362Z,58.70
2019-05-02T06:08:21.479Z,56.60
2019-05-02T06:10:54.962Z,53.87
2019-05-02T06:13:33.700Z,55.03
2019-05-02T06:16:15.102Z,58.23
2019-05-02T06:18:46.957Z,53.68
2019-05-02T06:21:23.377Z,52.48
2019-05-02T06:26:32.852Z,50.33
2019-05-02T06:29:13.037Z,49.55
2019-05-02T06:31:44.608Z,50.52
2019-05-02T06:34:19.024Z,47.13
2019-05-02T06:36:52.115Z,52.40
2019-05-02T06:39:27.023Z,50.85
2019-05-02T06:42:01.672Z,47.13
2019-05-02T06:44:34.946Z,47.05
2019-05-02T06:47:08.691Z,46.18
2019-05-02T06:49:42.167Z,53.08
2019-05-02T06:52:16.582Z,48.45
2019-05-02T06:54:54.144Z,42.25
2019-05-02T06:59:59.275Z,49.13
2019-05-02T07:02:33.537Z,47.50
2019-05-02T07:07:42.302Z,47.85
2019-05-02T07:10:20.137Z,44.15
2019-05-02T07:13:09.212Z,42.20
2019-05-02T07:15:33.539Z,48.08
2019-05-02T07:18:10.562Z,43.45
2019-05-02T07:20:47.241Z,46.55
2019-05-02T07:23:34.518Z,46.58
2019-05-02T07:26:15.418Z,42.95
2019-05-02T07:28:47.478Z,46.30
2019-05-02T07:31:21.763Z,44.53
2019-05-02T07:33:55.543Z,44.10
2019-05-02T07:36:31.074Z,40.45
2019-05-02T07:39:07.058Z,45.95
2019-05-02T07:41:40.414Z,39.65
2019-05-02T07:44:14.984Z,45.08
2019-05-02T07:49:26.542Z,43.40
2019-05-02T07:51:59.263Z,41.85
2019-05-02T07:54:34.000Z,43.35
2019-05-02T07:57:08.088Z,41.95
2019-05-02T07:59:41.360Z,43.75
2019-05-02T08:02:15.119Z,43.45
2019-05-02T08:04:51.976Z,39.13
2019-05-02T08:07:34.041Z,39.27
2019-05-02T08:10:03.662Z,40.83
2019-05-02T08:12:38.144Z,41.77
2019-05-02T08:15:16.631Z,39.03
2019-05-02T08:17:55.283Z,40.55
2019-05-02T08:20:28.722Z,48.20
2019-05-02T08:23:03.406Z,36.63
2019-05-02T08:28:15.904Z,37.25
2019-05-02T08:30:47.096Z,37.95
2019-05-02T08:33:20.799Z,37.20
2019-05-02T08:35:54.020Z,38.38
2019-05-02T08:38:28.723Z,39.85
2019-05-02T08:41:03.349Z,41.20
2019-05-02T08:43:40.228Z,38.05
2019-05-02T08:46:15.951Z,37.60
2019-05-02T08:48:51.835Z,36.53
2019-05-02T08:51:26.959Z,39.00
2019-05-02T08:54:00.895Z,40.35
2019-05-02T08:56:36.636Z,40.05
2019-05-02T08:59:10.345Z,43.42
2019-05-02T09:01:49.477Z,38.67
2019-05-02T09:04:24.183Z,33.20
2019-05-02T09:06:58.876Z,35.58
2019-05-02T09:09:32.610Z,38.90
2019-05-02T09:12:12.354Z,33.48
2019-05-02T09:14:42.620Z,44.60
2019-05-02T09:17:16.715Z,44.58
2019-05-02T09:20:00.388Z,45.93
2019-05-02T09:24:56.707Z,32.73
2019-05-02T09:27:31.810Z,35.17
2019-05-02T09:30:12.424Z,52.62
2019-05-02T09:32:47.414Z,36.88
2019-05-02T09:37:56.757Z,41.98
2019-05-02T09:40:31.919Z,42.23
2019-05-02T09:43:06.095Z,49.95
2019-05-02T09:45:41.815Z,41.05
2019-05-02T09:48:17.444Z,38.98
2019-05-02T09:50:52.772Z,43.00
2019-05-02T09:56:01.988Z,34.18
2019-05-02T09:58:37.114Z,29.27
2019-05-02T10:01:12.859Z,46.35
2019-05-02T10:03:46.504Z,30.45
2019-05-02T10:06:19.927Z,32.42
2019-05-02T10:08:54.240Z,36.30
2019-05-02T10:11:27.733Z,36.90
2019-05-02T10:14:02.467Z,47.40
2019-05-02T10:16:36.405Z,56.77
2019-05-02T10:19:11.449Z,50.63
2019-05-02T10:21:47.039Z,40.65
2019-05-02T10:26:55.255Z,89.22
2019-05-02T10:29:29.720Z,38.00
2019-05-02T10:32:07.719Z,56.63
2019-05-02T10:34:37.618Z,36.58
2019-05-02T10:37:12.330Z,27.32
2019-05-02T10:39:49.759Z,31.62
2019-05-02T10:42:23.199Z,31.02
2019-05-02T10:44:58.333Z,30.20
2019-05-02T10:47:36.151Z,24.57
2019-05-02T10:50:11.688Z,24.98
2019-05-02T10:52:46.622Z,31.75
2019-05-02T10:55:22.300Z,34.20
2019-05-02T10:57:55.944Z,47.35
2019-05-02T11:00:32.518Z,40.43
2019-05-02T11:03:08.699Z,42.60
2019-05-02T11:05:43.631Z,40.33
2019-05-02T11:08:17.735Z,35.43
2019-05-02T11:10:52.739Z,29.80
2019-05-02T11:13:27.931Z,44.23
2019-05-02T11:16:04.067Z,36.50
2019-05-02T11:18:44.850Z,28.98
2019-05-02T11:21:18.741Z,83.52
2019-05-02T11:26:33.312Z,33.98
2019-05-02T11:29:08.956Z,37.13
2019-05-02T11:31:43.826Z,38.35
2019-05-02T11:34:17.907Z,48.70
2019-05-02T11:36:52.664Z,61.60
2019-05-02T11:39:35.625Z,53.17
2019-05-02T11:42:02.207Z,67.85
2019-05-02T11:47:10.042Z,41.37
2019-05-02T11:49:46.862Z,42.85
2019-05-02T11:54:52.109Z,35.50
2019-05-02T12:00:05.070Z,37.15
2019-05-02T12:05:12.784Z,42.88
2019-05-02T12:07:45.774Z,40.10
2019-05-02T12:10:21.635Z,41.05
2019-05-02T12:12:54.754Z,29.65
2019-05-02T12:15:28.107Z,37.88
2019-05-02T12:18:03.677Z,40.45
2019-05-02T12:20:38.747Z,39.27
2019-05-02T12:23:13.863Z,37.10
2019-05-02T12:26:05.529Z,34.90
2019-05-02T12:28:42.916Z,36.88
2019-05-02T12:31:17.622Z,39.30
2019-05-02T12:33:52.126Z,36.13
2019-05-02T12:36:25.355Z,34.60
2019-05-02T12:38:58.569Z,40.52
2019-05-02T12:41:33.159Z,37.42
2019-05-02T12:44:07.296Z,42.03
2019-05-02T12:46:42.761Z,34.08
2019-05-02T12:49:26.991Z,39.33
2019-05-02T12:54:26.728Z,35.60
2019-05-02T12:57:02.093Z,39.42
2019-05-02T12:59:35.662Z,41.93
2019-05-02T13:04:45.237Z,46.17
2019-05-02T13:07:19.948Z,39.65
2019-05-02T13:12:28.066Z,44.88
2019-05-02T13:17:42.928Z,49.08
2019-05-02T13:20:12.868Z,44.65
2019-05-02T13:22:47.376Z,39.00
2019-05-02T13:25:22.552Z,43.45
2019-05-02T13:27:57.462Z,40.88
2019-05-02T13:30:42.971Z,50.23
2019-05-02T13:33:12.117Z,44.77
2019-05-02T13:35:48.390Z,53.42
2019-05-02T13:38:23.034Z,56.80
2019-05-02T13:40:57.578Z,58.48
2019-05-02T13:43:33.382Z,52.58
2019-05-02T13:46:09.550Z,62.20
2019-05-02T13:48:43.516Z,56.65
2019-05-02T13:51:17.473Z,47.17
2019-05-02T13:53:54.451Z,51.83
2019-05-02T13:56:27.677Z,55.30
2019-05-02T13:59:03.725Z,62.60
2019-05-02T14:01:42.369Z,50.03
2019-05-02T14:04:15.719Z,60.08
2019-05-02T14:06:52.848Z,56.05
2019-05-02T14:09:28.746Z,46.20
2019-05-02T14:12:05.423Z,55.23
2019-05-02T14:14:42.336Z,54.80
2019-05-02T14:17:15.864Z,50.70
2019-05-02T14:20:07.411Z,54.38
2019-05-02T14:22:32.516Z,45.92
2019-05-02T14:25:07.243Z,57.80
2019-05-02T14:27:42.213Z,53.75
2019-05-02T14:30:17.138Z,49.15
2019-05-02T14:32:52.831Z,51.40
2019-05-02T14:35:29.936Z,54.77
2019-05-02T14:38:05.494Z,53.87
2019-05-02T14:40:42.873Z,53.95
2019-05-02T14:43:18.939Z,50.65
2019-05-02T14:45:57.411Z,53.28
2019-05-02T14:48:34.507Z,55.12
2019-05-02T14:51:06.556Z,50.67
2019-05-02T14:53:43.011Z,55.83
2019-05-02T14:56:20.256Z,42.95
2019-05-02T14:58:54.760Z,49.45
2019-05-02T15:01:32.159Z,48.70
2019-05-02T15:04:08.194Z,55.00
2019-05-02T15:06:47.117Z,47.25
2019-05-02T15:09:24.832Z,53.87
2019-05-02T15:11:55.855Z,52.90
2019-05-02T15:14:32.678Z,49.27
2019-05-02T15:17:07.074Z,53.40
2019-05-02T15:19:42.747Z,51.37
2019-05-02T15:22:17.757Z,55.40
2019-05-02T15:24:52.961Z,52.08
2019-05-02T15:27:39.335Z,50.38
2019-05-02T15:30:06.703Z,52.13
2019-05-02T15:32:46.209Z,54.42
2019-05-02T15:35:23.042Z,58.17
2019-05-02T15:37:56.530Z,46.13
2019-05-02T15:43:09.184Z,43.50
2019-05-02T15:45:44.028Z,50.50
2019-05-02T15:48:22.625Z,50.38
2019-05-02T15:50:55.359Z,45.60
2019-05-02T15:53:32.361Z,50.52
2019-05-02T15:56:15.735Z,41.60
2019-05-02T15:58:44.932Z,47.98
2019-05-02T16:01:22.456Z,59.18
2019-05-02T16:03:57.244Z,66.50
2019-05-02T16:06:38.589Z,65.55
2019-05-02T16:09:16.008Z,64.70
2019-05-02T16:11:53.287Z,68.62
2019-05-02T16:14:27.202Z,65.40
2019-05-02T16:17:03.819Z,54.90
2019-05-02T16:19:39.123Z,55.60
2019-05-02T16:22:15.687Z,54.27
2019-05-02T16:24:51.029Z,50.17
2019-05-02T16:27:29.096Z,53.73
2019-05-02T16:30:06.098Z,60.08
2019-05-02T16:32:42.016Z,63.00
2019-05-02T16:35:17.371Z,55.63
2019-05-02T16:37:56.037Z,62.33
2019-05-02T16:40:32.163Z,64.53
2019-05-02T16:43:03.852Z,62.45
2019-05-02T16:45:38.367Z,59.00
2019-05-02T16:50:46.853Z,67.22
2019-05-02T16:53:22.709Z,65.57
2019-05-02T16:55:58.490Z,70.42
2019-05-02T16:58:33.706Z,68.10
2019-05-02T17:01:09.032Z,65.87
2019-05-02T17:03:43.285Z,73.33
2019-05-02T17:06:22.458Z,64.00
2019-05-02T17:08:57.524Z,65.00
2019-05-02T17:11:34.511Z,63.78
2019-05-02T17:14:07.144Z,58.55
2019-05-02T17:16:42.541Z,55.73
2019-05-02T17:19:17.086Z,51.58
2019-05-02T17:21:56.320Z,51.70
2019-05-02T17:24:26.428Z,53.58
2019-05-02T17:27:02.453Z,62.15
2019-05-02T17:29:35.471Z,56.10
2019-05-02T17:32:09.184Z,54.20
2019-05-02T17:34:42.450Z,49.40
2019-05-02T17:37:15.865Z,50.00
2019-05-02T17:42:25.849Z,51.75
2019-05-02T17:45:03.360Z,57.50
2019-05-02T17:47:36.150Z,38.10
2019-05-02T17:50:17.794Z,47.20
2019-05-02T17:52:49.239Z,42.75
2019-05-02T17:55:23.996Z,41.00
2019-05-02T17:57:57.687Z,39.75
2019-05-02T18:00:33.431Z,44.35
2019-05-02T18:03:07.856Z,45.08
2019-05-02T18:05:41.858Z,59.00
2019-05-02T18:08:15.586Z,43.63
2019-05-02T18:10:50.636Z,46.75
2019-05-02T18:13:23.840Z,43.30
2019-05-02T18:15:59.706Z,47.78
2019-05-02T18:18:32.522Z,47.38
2019-05-02T18:21:06.357Z,68.25
2019-05-02T18:23:39.663Z,56.48
2019-05-02T18:26:12.950Z,60.43
2019-05-02T18:28:49.259Z,65.60
2019-05-02T18:31:21.711Z,69.92
2019-05-02T18:33:56.272Z,57.93
2019-05-02T18:36:29.160Z,67.95
2019-05-02T18:39:05.132Z,58.42
2019-05-02T18:41:41.732Z,73.12
2019-05-02T18:44:17.194Z,64.47
2019-05-02T18:46:46.051Z,69.72
2019-05-02T18:49:21.908Z,70.10
2019-05-02T18:51:57.340Z,61.30
2019-05-02T18:54:28.238Z,67.60
2019-05-02T18:57:02.387Z,64.67
2019-05-02T18:59:35.117Z,67.50
2019-05-02T19:02:08.759Z,70.90
2019-05-02T19:04:42.393Z,49.45
2019-05-02T19:07:15.940Z,51.25
2019-05-02T19:09:51.398Z,51.30
2019-05-02T19:12:26.030Z,49.93
2019-05-02T19:15:05.391Z,52.85
2019-05-02T19:17:38.373Z,62.25
2019-05-02T19:20:11.050Z,58.30
2019-05-02T19:22:50.765Z,63.28
2019-05-02T19:25:17.418Z,67.47
2019-05-02T19:27:52.026Z,65.80
2019-05-02T19:30:27.343Z,71.10
2019-05-02T19:33:06.059Z,69.42
2019-05-02T19:35:37.686Z,71.57
2019-05-02T19:38:16.978Z,61.15
2019-05-02T19:40:46.910Z,57.03
2019-05-02T19:43:19.990Z,65.45
2019-05-02T19:45:54.031Z,58.87
2019-05-02T19:48:32.976Z,60.50
2019-05-02T19:51:02.451Z,56.88
2019-05-02T19:53:35.425Z,58.65
2019-05-02T19:56:07.781Z,59.63
2019-05-02T19:58:42.576Z,48.90
2019-05-02T20:01:17.426Z,59.45
2019-05-02T20:03:48.998Z,55.03
2019-05-02T20:06:22.147Z,68.78
2019-05-02T20:08:59.242Z,67.15
2019-05-02T20:11:32.926Z,63.30
2019-05-02T20:14:08.976Z,71.87
2019-05-02T20:16:44.107Z,71.22
2019-05-02T20:19:17.308Z,70.30
2019-05-02T20:21:49.113Z,64.40
2019-05-02T20:24:22.667Z,70.62
2019-05-02T20:26:56.178Z,67.27
2019-05-02T20:29:29.200Z,70.20
2019-05-02T20:32:02.397Z,59.05
2019-05-02T20:34:35.687Z,59.53
2019-05-02T20:37:08.263Z,58.13
2019-05-02T20:39:41.609Z,63.50
2019-05-02T20:42:14.466Z,60.83
2019-05-02T20:44:46.711Z,64.07
2019-05-02T20:47:22.175Z,55.83
2019-05-02T20:49:55.141Z,63.85
2019-05-02T20:52:28.132Z,89.17
2019-05-02T20:55:01.801Z,61.20
2019-05-02T20:57:34.723Z,63.60
2019-05-02T21:00:12.136Z,65.03
2019-05-02T21:02:44.366Z,64.45
2019-05-02T21:05:19.093Z,66.57
2019-05-02T21:10:26.614Z,60.75
2019-05-02T21:12:59.756Z,69.97
2019-05-02T21:15:33.291Z,71.77
2019-05-02T21:18:06.588Z,105.47
2019-05-02T21:20:41.771Z,99.52
2019-05-02T21:23:14.091Z,100.02
2019-05-02T21:25:46.848Z,96.53
2019-05-02T21:28:19.551Z,84.07
2019-05-02T21:30:52.551Z,73.72
2019-05-02T21:33:27.566Z,88.37
2019-05-02T21:36:00.656Z,77.82
2019-05-02T21:38:33.221Z,81.37
2019-05-02T21:41:07.042Z,74.10
2019-05-02T21:43:42.293Z,62.90
2019-05-02T21:46:14.416Z,67.40
2019-05-02T21:48:46.901Z,66.60
2019-05-02T21:51:22.581Z,60.60
2019-05-02T21:53:58.458Z,57.88
2019-05-02T21:56:32.942Z,62.90
2019-05-02T21:59:07.156Z,52.73
2019-05-02T22:01:44.038Z,50.78
2019-05-02T22:04:17.026Z,48.80
2019-05-02T22:06:52.125Z,50.63
2019-05-02T22:09:24.206Z,46.60
2019-05-02T22:11:57.006Z,50.52
2019-05-02T22:14:29.889Z,46.48
2019-05-02T22:17:03.321Z,41.37
2019-05-02T22:19:35.697Z,46.10
2019-05-02T22:22:08.430Z,48.33
2019-05-02T22:24:42.109Z,46.58
2019-05-02T22:27:16.761Z,44.20
2019-05-02T22:29:49.524Z,41.55
2019-05-02T22:32:22.596Z,43.25
2019-05-02T22:34:55.952Z,39.92
2019-05-02T22:37:28.994Z,43.30
2019-05-02T22:40:03.973Z,43.80
2019-05-02T22:42:36.436Z,40.25
2019-05-02T22:45:12.506Z,47.00
2019-05-02T22:47:45.466Z,45.43
2019-05-02T22:50:18.145Z,43.25
2019-05-02T22:52:52.242Z,42.40
2019-05-02T22:55:24.929Z,46.60
2019-05-02T22:57:57.442Z,48.55
2019-05-02T23:00:32.185Z,43.33
2019-05-02T23:03:04.633Z,49.48
2019-05-02T23:05:37.384Z,52.50
2019-05-02T23:08:10.014Z,54.00
2019-05-02T23:10:42.846Z,59.30
2019-05-02T23:13:15.206Z,54.45
2019-05-02T23:15:47.896Z,60.38
2019-05-02T23:18:20.330Z,63.20
2019-05-02T23:20:53.184Z,53.38
2019-05-02T23:23:25.640Z,55.15
2019-05-02T23:25:59.646Z,58.38
2019-05-02T23:28:35.181Z,53.45
2019-05-02T23:31:07.785Z,53.25
2019-05-02T23:33:42.311Z,50.45
2019-05-02T23:36:14.949Z,56.18
2019-05-02T23:38:47.634Z,47.15
2019-05-02T23:41:22.003Z,48.02
2019-05-02T23:43:54.320Z,53.60
2019-05-02T23:46:27.435Z,49.90
2019-05-02T23:49:02.015Z,46.18
2019-05-02T23:51:34.710Z,50.70
2019-05-02T23:54:07.216Z,50.17
2019-05-02T23:56:39.678Z,51.60
2019-05-02T23:59:12.292Z,53.48
